sensor_id;sensor_type;location;lat;lon;timestamp;temperature;humidity
37956;DHT22;23776;51.592;7.180;2023-03-11T00:00:59;1.50;94.30
37956;DHT22;23776;51.592;7.180;2023-03-11T00:03:25;1.60;94.20
37956;DHT22;23776;51.592;7.180;2023-03-11T00:05:53;1.50;93.70
37956;DHT22;23776;51.592;7.180;2023-03-11T00:08:22;1.50;93.60
37956;DHT22;23776;51.592;7.180;2023-03-11T00:10:51;1.50;93.30
37956;DHT22;23776;51.592;7.180;2023-03-11T00:13:19;1.50;93.10
37956;DHT22;23776;51.592;7.180;2023-03-11T00:15:48;1.50;92.60
37956;DHT22;23776;51.592;7.180;2023-03-11T00:18:14;1.50;92.40
37956;DHT22;23776;51.592;7.180;2023-03-11T00:20:42;1.50;91.80
37956;DHT22;23776;51.592;7.180;2023-03-11T00:23:11;1.50;91.10
37956;DHT22;23776;51.592;7.180;2023-03-11T00:25:38;1.40;90.80
37956;DHT22;23776;51.592;7.180;2023-03-11T00:28:05;1.50;90.80
37956;DHT22;23776;51.592;7.180;2023-03-11T00:30:32;1.50;90.30
37956;DHT22;23776;51.592;7.180;2023-03-11T00:32:58;1.50;90.30
37956;DHT22;23776;51.592;7.180;2023-03-11T00:35:28;1.40;90.40
37956;DHT22;23776;51.592;7.180;2023-03-11T00:37:59;1.40;90.20
37956;DHT22;23776;51.592;7.180;2023-03-11T00:40:28;1.40;90.70
37956;DHT22;23776;51.592;7.180;2023-03-11T00:42:54;1.40;91.60
37956;DHT22;23776;51.592;7.180;2023-03-11T00:45:21;1.40;91.30
37956;DHT22;23776;51.592;7.180;2023-03-11T00:47:46;1.40;91.00
37956;DHT22;23776;51.592;7.180;2023-03-11T00:50:21;1.40;90.30
37956;DHT22;23776;51.592;7.180;2023-03-11T00:52:48;1.40;88.70
37956;DHT22;23776;51.592;7.180;2023-03-11T00:55:16;1.30;90.00
37956;DHT22;23776;51.592;7.180;2023-03-11T00:57:43;1.40;89.80
37956;DHT22;23776;51.592;7.180;2023-03-11T01:00:12;1.30;88.80
37956;DHT22;23776;51.592;7.180;2023-03-11T01:02:38;1.40;90.10
37956;DHT22;23776;51.592;7.180;2023-03-11T01:05:05;1.40;90.90
37956;DHT22;23776;51.592;7.180;2023-03-11T01:07:31;1.40;90.30
37956;DHT22;23776;51.592;7.180;2023-03-11T01:09:58;1.30;90.00
37956;DHT22;23776;51.592;7.180;2023-03-11T01:14:53;1.30;90.40
37956;DHT22;23776;51.592;7.180;2023-03-11T01:17:19;1.40;90.80
37956;DHT22;23776;51.592;7.180;2023-03-11T01:19:47;1.30;91.20
37956;DHT22;23776;51.592;7.180;2023-03-11T01:22:12;1.40;92.00
37956;DHT22;23776;51.592;7.180;2023-03-11T01:24:38;1.40;91.50
37956;DHT22;23776;51.592;7.180;2023-03-11T01:27:04;1.30;90.30
37956;DHT22;23776;51.592;7.180;2023-03-11T01:29:29;1.30;90.60
37956;DHT22;23776;51.592;7.180;2023-03-11T01:31:55;1.30;91.30
37956;DHT22;23776;51.592;7.180;2023-03-11T01:34:21;1.30;91.10
37956;DHT22;23776;51.592;7.180;2023-03-11T01:36:46;1.40;91.60
37956;DHT22;23776;51.592;7.180;2023-03-11T01:39:12;1.40;91.00
37956;DHT22;23776;51.592;7.180;2023-03-11T01:41:37;1.50;90.60
37956;DHT22;23776;51.592;7.180;2023-03-11T01:44:03;1.50;87.30
37956;DHT22;23776;51.592;7.180;2023-03-11T01:49:17;1.50;88.70
37956;DHT22;23776;51.592;7.180;2023-03-11T01:51:45;1.50;85.60
37956;DHT22;23776;51.592;7.180;2023-03-11T01:54:22;1.50;86.70
37956;DHT22;23776;51.592;7.180;2023-03-11T01:56:50;1.40;84.50
37956;DHT22;23776;51.592;7.180;2023-03-11T01:59:20;-0.20;84.20
37956;DHT22;23776;51.592;7.180;2023-03-11T02:02:04;1.30;84.10
37956;DHT22;23776;51.592;7.180;2023-03-11T02:04:32;1.30;86.40
37956;DHT22;23776;51.592;7.180;2023-03-11T02:06:59;1.30;85.10
37956;DHT22;23776;51.592;7.180;2023-03-11T02:09:25;1.30;87.50
37956;DHT22;23776;51.592;7.180;2023-03-11T02:11:51;1.30;89.20
37956;DHT22;23776;51.592;7.180;2023-03-11T02:14:17;1.30;86.80
37956;DHT22;23776;51.592;7.180;2023-03-11T02:16:44;1.30;84.10
37956;DHT22;23776;51.592;7.180;2023-03-11T02:22:03;1.40;81.60
37956;DHT22;23776;51.592;7.180;2023-03-11T02:27:36;1.20;80.40
37956;DHT22;23776;51.592;7.180;2023-03-11T02:30:03;1.20;81.80
37956;DHT22;23776;51.592;7.180;2023-03-11T02:32:29;1.20;83.00
37956;DHT22;23776;51.592;7.180;2023-03-11T02:34:55;1.10;82.80
37956;DHT22;23776;51.592;7.180;2023-03-11T02:37:20;1.10;82.20
37956;DHT22;23776;51.592;7.180;2023-03-11T02:39:49;1.00;83.10
37956;DHT22;23776;51.592;7.180;2023-03-11T02:42:24;1.00;86.10
37956;DHT22;23776;51.592;7.180;2023-03-11T02:45:11;1.00;86.90
37956;DHT22;23776;51.592;7.180;2023-03-11T02:47:38;1.00;87.60
37956;DHT22;23776;51.592;7.180;2023-03-11T02:50:05;0.90;86.30
37956;DHT22;23776;51.592;7.180;2023-03-11T02:52:33;0.90;86.70
37956;DHT22;23776;51.592;7.180;2023-03-11T02:54:59;0.90;86.40
37956;DHT22;23776;51.592;7.180;2023-03-11T02:57:24;0.90;87.10
37956;DHT22;23776;51.592;7.180;2023-03-11T02:59:50;0.80;84.40
37956;DHT22;23776;51.592;7.180;2023-03-11T03:02:16;0.80;84.70
37956;DHT22;23776;51.592;7.180;2023-03-11T03:04:41;0.90;86.60
37956;DHT22;23776;51.592;7.180;2023-03-11T03:07:07;0.90;83.70
37956;DHT22;23776;51.592;7.180;2023-03-11T03:09:34;0.80;83.70
37956;DHT22;23776;51.592;7.180;2023-03-11T03:12:00;0.90;82.20
37956;DHT22;23776;51.592;7.180;2023-03-11T03:14:26;1.00;81.60
37956;DHT22;23776;51.592;7.180;2023-03-11T03:16:52;0.90;78.60
37956;DHT22;23776;51.592;7.180;2023-03-11T03:19:18;0.90;78.30
37956;DHT22;23776;51.592;7.180;2023-03-11T03:21:44;1.00;79.10
37956;DHT22;23776;51.592;7.180;2023-03-11T03:24:10;1.00;75.30
37956;DHT22;23776;51.592;7.180;2023-03-11T03:26:36;1.00;74.60
37956;DHT22;23776;51.592;7.180;2023-03-11T03:29:02;1.00;76.80
37956;DHT22;23776;51.592;7.180;2023-03-11T03:31:28;1.10;75.90
37956;DHT22;23776;51.592;7.180;2023-03-11T03:33:54;1.10;75.70
37956;DHT22;23776;51.592;7.180;2023-03-11T03:36:19;1.10;77.00
37956;DHT22;23776;51.592;7.180;2023-03-11T03:38:45;1.20;77.80
37956;DHT22;23776;51.592;7.180;2023-03-11T03:41:14;1.20;74.80
37956;DHT22;23776;51.592;7.180;2023-03-11T03:43:40;1.20;72.90
37956;DHT22;23776;51.592;7.180;2023-03-11T03:46:06;1.20;72.30
37956;DHT22;23776;51.592;7.180;2023-03-11T03:48:31;1.20;73.00
37956;DHT22;23776;51.592;7.180;2023-03-11T03:51:02;1.20;69.90
37956;DHT22;23776;51.592;7.180;2023-03-11T03:53:28;1.20;72.20
37956;DHT22;23776;51.592;7.180;2023-03-11T03:55:54;1.20;69.50
37956;DHT22;23776;51.592;7.180;2023-03-11T03:58:20;1.20;70.10
37956;DHT22;23776;51.592;7.180;2023-03-11T04:00:45;1.20;70.10
37956;DHT22;23776;51.592;7.180;2023-03-11T04:03:11;1.20;68.00
37956;DHT22;23776;51.592;7.180;2023-03-11T04:05:37;1.20;70.10
37956;DHT22;23776;51.592;7.180;2023-03-11T04:08:02;1.20;65.60
37956;DHT22;23776;51.592;7.180;2023-03-11T04:10:28;1.10;67.90
37956;DHT22;23776;51.592;7.180;2023-03-11T04:12:54;1.10;66.60
37956;DHT22;23776;51.592;7.180;2023-03-11T04:15:19;1.10;66.80
37956;DHT22;23776;51.592;7.180;2023-03-11T04:17:45;1.20;70.60
37956;DHT22;23776;51.592;7.180;2023-03-11T04:20:11;1.20;66.80
37956;DHT22;23776;51.592;7.180;2023-03-11T04:22:36;1.20;66.90
37956;DHT22;23776;51.592;7.180;2023-03-11T04:25:02;1.20;66.50
37956;DHT22;23776;51.592;7.180;2023-03-11T04:27:28;1.20;68.80
37956;DHT22;23776;51.592;7.180;2023-03-11T04:29:54;1.20;65.70
37956;DHT22;23776;51.592;7.180;2023-03-11T04:32:20;1.20;64.00
37956;DHT22;23776;51.592;7.180;2023-03-11T04:37:13;1.20;64.80
37956;DHT22;23776;51.592;7.180;2023-03-11T04:39:39;1.20;64.30
37956;DHT22;23776;51.592;7.180;2023-03-11T04:42:04;1.20;64.70
37956;DHT22;23776;51.592;7.180;2023-03-11T04:44:30;1.20;68.30
37956;DHT22;23776;51.592;7.180;2023-03-11T04:46:56;1.30;66.70
37956;DHT22;23776;51.592;7.180;2023-03-11T04:49:21;1.20;59.70
37956;DHT22;23776;51.592;7.180;2023-03-11T04:51:47;1.20;57.20
37956;DHT22;23776;51.592;7.180;2023-03-11T04:54:12;1.10;60.80
37956;DHT22;23776;51.592;7.180;2023-03-11T04:56:38;1.20;60.20
37956;DHT22;23776;51.592;7.180;2023-03-11T04:59:04;1.20;60.00
37956;DHT22;23776;51.592;7.180;2023-03-11T05:01:29;1.10;59.20
37956;DHT22;23776;51.592;7.180;2023-03-11T05:03:55;1.10;59.50
37956;DHT22;23776;51.592;7.180;2023-03-11T05:06:20;1.10;59.90
37956;DHT22;23776;51.592;7.180;2023-03-11T05:08:46;1.10;56.80
37956;DHT22;23776;51.592;7.180;2023-03-11T05:11:11;1.00;55.70
37956;DHT22;23776;51.592;7.180;2023-03-11T05:13:37;1.10;57.60
37956;DHT22;23776;51.592;7.180;2023-03-11T05:16:03;1.00;55.80
37956;DHT22;23776;51.592;7.180;2023-03-11T05:18:29;1.00;59.20
37956;DHT22;23776;51.592;7.180;2023-03-11T05:20:57;1.00;60.00
37956;DHT22;23776;51.592;7.180;2023-03-11T05:23:22;1.10;58.70
37956;DHT22;23776;51.592;7.180;2023-03-11T05:25:48;1.00;57.90
37956;DHT22;23776;51.592;7.180;2023-03-11T05:28:13;0.90;59.70
37956;DHT22;23776;51.592;7.180;2023-03-11T05:30:39;1.00;62.70
37956;DHT22;23776;51.592;7.180;2023-03-11T05:33:05;1.00;52.40
37956;DHT22;23776;51.592;7.180;2023-03-11T05:35:30;1.00;55.50
37956;DHT22;23776;51.592;7.180;2023-03-11T05:37:56;1.00;59.40
37956;DHT22;23776;51.592;7.180;2023-03-11T05:40:21;1.10;58.70
37956;DHT22;23776;51.592;7.180;2023-03-11T05:42:47;1.10;52.50
37956;DHT22;23776;51.592;7.180;2023-03-11T05:45:13;1.00;57.80
37956;DHT22;23776;51.592;7.180;2023-03-11T05:47:39;1.10;59.70
37956;DHT22;23776;51.592;7.180;2023-03-11T05:50:07;1.10;57.70
37956;DHT22;23776;51.592;7.180;2023-03-11T05:52:32;1.20;59.50
37956;DHT22;23776;51.592;7.180;2023-03-11T05:54:58;1.10;53.30
37956;DHT22;23776;51.592;7.180;2023-03-11T05:57:24;1.20;60.30
37956;DHT22;23776;51.592;7.180;2023-03-11T05:59:49;1.20;61.20
37956;DHT22;23776;51.592;7.180;2023-03-11T06:02:15;1.20;61.80
37956;DHT22;23776;51.592;7.180;2023-03-11T06:04:41;1.20;60.20
37956;DHT22;23776;51.592;7.180;2023-03-11T06:07:06;1.10;59.40
37956;DHT22;23776;51.592;7.180;2023-03-11T06:09:32;1.10;60.40
37956;DHT22;23776;51.592;7.180;2023-03-11T06:12:02;1.10;58.80
37956;DHT22;23776;51.592;7.180;2023-03-11T06:14:27;1.10;57.30
37956;DHT22;23776;51.592;7.180;2023-03-11T06:16:56;1.00;47.90
37956;DHT22;23776;51.592;7.180;2023-03-11T06:19:23;1.00;53.10
37956;DHT22;23776;51.592;7.180;2023-03-11T06:21:49;1.00;51.60
37956;DHT22;23776;51.592;7.180;2023-03-11T06:24:14;0.90;49.70
37956;DHT22;23776;51.592;7.180;2023-03-11T06:26:40;0.80;48.50
37956;DHT22;23776;51.592;7.180;2023-03-11T06:29:11;0.90;53.40
37956;DHT22;23776;51.592;7.180;2023-03-11T06:31:38;0.90;54.10
37956;DHT22;23776;51.592;7.180;2023-03-11T06:34:04;0.90;54.10
37956;DHT22;23776;51.592;7.180;2023-03-11T06:36:31;0.90;56.20
37956;DHT22;23776;51.592;7.180;2023-03-11T06:38:57;1.00;55.10
37956;DHT22;23776;51.592;7.180;2023-03-11T06:41:23;1.00;58.10
37956;DHT22;23776;51.592;7.180;2023-03-11T06:43:49;1.10;59.70
37956;DHT22;23776;51.592;7.180;2023-03-11T06:46:17;1.10;58.30
37956;DHT22;23776;51.592;7.180;2023-03-11T06:48:44;1.00;58.20
37956;DHT22;23776;51.592;7.180;2023-03-11T06:51:16;1.00;58.60
37956;DHT22;23776;51.592;7.180;2023-03-11T06:53:42;1.00;57.60
37956;DHT22;23776;51.592;7.180;2023-03-11T06:56:09;2.90;58.30
37956;DHT22;23776;51.592;7.180;2023-03-11T06:58:37;1.00;50.80
37956;DHT22;23776;51.592;7.180;2023-03-11T07:01:09;1.10;54.90
37956;DHT22;23776;51.592;7.180;2023-03-11T07:03:34;1.10;55.60
37956;DHT22;23776;51.592;7.180;2023-03-11T07:06:00;1.10;56.70
37956;DHT22;23776;51.592;7.180;2023-03-11T07:08:27;1.10;55.90
37956;DHT22;23776;51.592;7.180;2023-03-11T07:11:25;1.20;48.90
37956;DHT22;23776;51.592;7.180;2023-03-11T07:13:52;1.20;42.50
37956;DHT22;23776;51.592;7.180;2023-03-11T07:16:23;1.20;35.90
37956;DHT22;23776;51.592;7.180;2023-03-11T07:18:50;1.20;23.40
37956;DHT22;23776;51.592;7.180;2023-03-11T07:21:20;1.20;13.50
37956;DHT22;23776;51.592;7.180;2023-03-11T07:23:47;1.30;23.30
37956;DHT22;23776;51.592;7.180;2023-03-11T07:26:16;1.30;19.60
37956;DHT22;23776;51.592;7.180;2023-03-11T07:28:42;1.40;20.80
37956;DHT22;23776;51.592;7.180;2023-03-11T07:31:10;1.50;14.30
37956;DHT22;23776;51.592;7.180;2023-03-11T07:33:37;1.60;7.60
37956;DHT22;23776;51.592;7.180;2023-03-11T07:36:23;1.70;14.40
37956;DHT22;23776;51.592;7.180;2023-03-11T07:38:57;1.70;1.00
37956;DHT22;23776;51.592;7.180;2023-03-11T07:41:25;1.70;1.00
37956;DHT22;23776;51.592;7.180;2023-03-11T07:43:54;1.80;1.00
37956;DHT22;23776;51.592;7.180;2023-03-11T07:46:21;1.90;1.00
37956;DHT22;23776;51.592;7.180;2023-03-11T07:48:48;1.90;1.00
37956;DHT22;23776;51.592;7.180;2023-03-11T07:51:16;1.90;1.00
37956;DHT22;23776;51.592;7.180;2023-03-11T07:53:43;1.90;1.00
37956;DHT22;23776;51.592;7.180;2023-03-11T07:56:10;2.00;1.00
37956;DHT22;23776;51.592;7.180;2023-03-11T07:58:36;2.10;1.00
37956;DHT22;23776;51.592;7.180;2023-03-11T08:01:08;2.10;1.00
37956;DHT22;23776;51.592;7.180;2023-03-11T08:03:34;2.10;1.00
37956;DHT22;23776;51.592;7.180;2023-03-11T08:06:00;2.10;1.00
37956;DHT22;23776;51.592;7.180;2023-03-11T08:08:26;2.20;1.00
37956;DHT22;23776;51.592;7.180;2023-03-11T08:10:52;2.20;1.00
37956;DHT22;23776;51.592;7.180;2023-03-11T08:13:18;2.30;1.00
37956;DHT22;23776;51.592;7.180;2023-03-11T08:15:44;2.40;1.00
37956;DHT22;23776;51.592;7.180;2023-03-11T08:18:10;2.40;1.00
37956;DHT22;23776;51.592;7.180;2023-03-11T08:20:38;2.50;1.00
37956;DHT22;23776;51.592;7.180;2023-03-11T08:23:04;2.50;1.00
37956;DHT22;23776;51.592;7.180;2023-03-11T08:25:29;2.50;1.00
37956;DHT22;23776;51.592;7.180;2023-03-11T08:27:55;2.60;1.00
37956;DHT22;23776;51.592;7.180;2023-03-11T08:30:22;2.60;1.00
37956;DHT22;23776;51.592;7.180;2023-03-11T08:32:47;2.70;1.00
37956;DHT22;23776;51.592;7.180;2023-03-11T08:35:14;2.70;1.00
37956;DHT22;23776;51.592;7.180;2023-03-11T08:37:40;2.70;1.00
37956;DHT22;23776;51.592;7.180;2023-03-11T08:40:06;2.70;1.00
37956;DHT22;23776;51.592;7.180;2023-03-11T08:42:32;2.70;1.00
37956;DHT22;23776;51.592;7.180;2023-03-11T08:44:57;2.70;1.00
37956;DHT22;23776;51.592;7.180;2023-03-11T08:47:23;2.80;1.00
37956;DHT22;23776;51.592;7.180;2023-03-11T08:49:48;2.90;99.90
37956;DHT22;23776;51.592;7.180;2023-03-11T08:52:14;2.90;99.90
37956;DHT22;23776;51.592;7.180;2023-03-11T08:54:40;2.90;1.00
37956;DHT22;23776;51.592;7.180;2023-03-11T08:57:06;3.00;99.90
37956;DHT22;23776;51.592;7.180;2023-03-11T08:59:32;3.00;99.90
37956;DHT22;23776;51.592;7.180;2023-03-11T09:01:58;3.10;99.90
37956;DHT22;23776;51.592;7.180;2023-03-11T09:04:23;3.10;99.90
37956;DHT22;23776;51.592;7.180;2023-03-11T09:06:49;3.20;1.00
37956;DHT22;23776;51.592;7.180;2023-03-11T09:09:14;3.20;1.00
37956;DHT22;23776;51.592;7.180;2023-03-11T09:11:41;3.20;99.90
37956;DHT22;23776;51.592;7.180;2023-03-11T09:14:06;3.30;99.90
37956;DHT22;23776;51.592;7.180;2023-03-11T09:16:33;3.40;99.90
37956;DHT22;23776;51.592;7.180;2023-03-11T09:18:58;3.40;1.00
37956;DHT22;23776;51.592;7.180;2023-03-11T09:21:31;3.50;99.90
37956;DHT22;23776;51.592;7.180;2023-03-11T09:23:57;2.90;99.90
37956;DHT22;23776;51.592;7.180;2023-03-11T09:26:23;3.60;52.30
37956;DHT22;23776;51.592;7.180;2023-03-11T09:28:49;3.70;99.90
37956;DHT22;23776;51.592;7.180;2023-03-11T09:31:14;3.80;99.90
37956;DHT22;23776;51.592;7.180;2023-03-11T09:33:41;3.90;1.00
37956;DHT22;23776;51.592;7.180;2023-03-11T09:36:16;3.80;99.90
37956;DHT22;23776;51.592;7.180;2023-03-11T09:38:42;3.90;1.00
37956;DHT22;23776;51.592;7.180;2023-03-11T09:55:02;4.70;1.00
37956;DHT22;23776;51.592;7.180;2023-03-11T09:57:33;4.90;99.90
37956;DHT22;23776;51.592;7.180;2023-03-11T10:00:03;5.00;99.90
37956;DHT22;23776;51.592;7.180;2023-03-11T10:02:29;5.10;99.90
37956;DHT22;23776;51.592;7.180;2023-03-11T10:05:14;5.20;99.90
37956;DHT22;23776;51.592;7.180;2023-03-11T10:07:48;5.30;99.90
37956;DHT22;23776;51.592;7.180;2023-03-11T10:10:16;5.50;99.90
37956;DHT22;23776;51.592;7.180;2023-03-11T10:15:32;5.80;99.90
37956;DHT22;23776;51.592;7.180;2023-03-11T10:26:24;6.40;1.00
37956;DHT22;23776;51.592;7.180;2023-03-11T10:29:02;6.20;99.90
37956;DHT22;23776;51.592;7.180;2023-03-11T10:34:15;5.90;1.00
37956;DHT22;23776;51.592;7.180;2023-03-11T10:39:21;6.20;56.20
37956;DHT22;23776;51.592;7.180;2023-03-11T10:41:54;6.50;1.00
37956;DHT22;23776;51.592;7.180;2023-03-11T10:44:35;6.90;99.90
37956;DHT22;23776;51.592;7.180;2023-03-11T10:47:01;7.30;99.90
37956;DHT22;23776;51.592;7.180;2023-03-11T10:49:27;7.90;6.60
37956;DHT22;23776;51.592;7.180;2023-03-11T10:51:53;8.30;29.90
37956;DHT22;23776;51.592;7.180;2023-03-11T10:54:32;8.70;53.30
37956;DHT22;23776;51.592;7.180;2023-03-11T10:57:01;9.10;37.30
37956;DHT22;23776;51.592;7.180;2023-03-11T11:00:05;9.60;1.00
37956;DHT22;23776;51.592;7.180;2023-03-11T11:02:37;10.10;99.90
37956;DHT22;23776;51.592;7.180;2023-03-11T11:08:14;10.30;99.90
37956;DHT22;23776;51.592;7.180;2023-03-11T11:10:54;10.90;99.90
37956;DHT22;23776;51.592;7.180;2023-03-11T11:13:28;11.50;99.90
37956;DHT22;23776;51.592;7.180;2023-03-11T11:16:18;12.00;99.90
37956;DHT22;23776;51.592;7.180;2023-03-11T11:18:53;12.80;99.90
37956;DHT22;23776;51.592;7.180;2023-03-11T11:21:35;13.00;99.90
37956;DHT22;23776;51.592;7.180;2023-03-11T11:24:28;12.30;99.90
37956;DHT22;23776;51.592;7.180;2023-03-11T11:29:41;12.10;99.90
37956;DHT22;23776;51.592;7.180;2023-03-11T11:35:03;11.00;99.90
37956;DHT22;23776;51.592;7.180;2023-03-11T11:37:32;10.20;99.90
37956;DHT22;23776;51.592;7.180;2023-03-11T11:40:05;9.50;99.90
37956;DHT22;23776;51.592;7.180;2023-03-11T11:42:35;9.00;99.90
37956;DHT22;23776;51.592;7.180;2023-03-11T11:47:38;8.40;99.90
37956;DHT22;23776;51.592;7.180;2023-03-11T11:50:13;8.30;99.90
37956;DHT22;23776;51.592;7.180;2023-03-11T11:52:44;8.50;99.90
37956;DHT22;23776;51.592;7.180;2023-03-11T11:55:26;8.90;99.90
37956;DHT22;23776;51.592;7.180;2023-03-11T11:57:53;9.50;99.90
37956;DHT22;23776;51.592;7.180;2023-03-11T12:00:22;10.20;99.90
37956;DHT22;23776;51.592;7.180;2023-03-11T12:06:38;11.70;99.90
37956;DHT22;23776;51.592;7.180;2023-03-11T12:09:16;12.30;99.90
37956;DHT22;23776;51.592;7.180;2023-03-11T12:12:18;12.50;99.90
37956;DHT22;23776;51.592;7.180;2023-03-11T12:17:12;12.10;99.90
37956;DHT22;23776;51.592;7.180;2023-03-11T12:19:53;12.30;99.90
37956;DHT22;23776;51.592;7.180;2023-03-11T12:28:16;13.70;99.90
37956;DHT22;23776;51.592;7.180;2023-03-11T12:30:45;13.90;99.90
37956;DHT22;23776;51.592;7.180;2023-03-11T12:33:36;13.00;99.90
37956;DHT22;23776;51.592;7.180;2023-03-11T12:36:04;12.30;99.90
37956;DHT22;23776;51.592;7.180;2023-03-11T12:38:38;11.70;99.90
37956;DHT22;23776;51.592;7.180;2023-03-11T12:46:11;12.80;99.90
37956;DHT22;23776;51.592;7.180;2023-03-11T12:48:47;12.80;99.90
37956;DHT22;23776;51.592;7.180;2023-03-11T12:53:58;13.00;99.90
37956;DHT22;23776;51.592;7.180;2023-03-11T12:56:57;12.90;99.90
37956;DHT22;23776;51.592;7.180;2023-03-11T13:08:15;13.70;99.90
37956;DHT22;23776;51.592;7.180;2023-03-11T13:10:44;13.80;99.90
37956;DHT22;23776;51.592;7.180;2023-03-11T13:18:45;11.70;99.90
37956;DHT22;23776;51.592;7.180;2023-03-11T13:27:02;11.60;99.90
37956;DHT22;23776;51.592;7.180;2023-03-11T13:32:33;12.00;99.90
37956;DHT22;23776;51.592;7.180;2023-03-11T13:40:42;12.40;99.90
37956;DHT22;23776;51.592;7.180;2023-03-11T13:43:20;12.70;99.90
37956;DHT22;23776;51.592;7.180;2023-03-11T13:48:41;12.90;99.90
37956;DHT22;23776;51.592;7.180;2023-03-11T13:51:26;13.10;99.90
37956;DHT22;23776;51.592;7.180;2023-03-11T13:54:20;13.20;99.90
37956;DHT22;23776;51.592;7.180;2023-03-11T13:56:57;13.50;99.90
37956;DHT22;23776;51.592;7.180;2023-03-11T13:59:28;13.70;99.90
37956;DHT22;23776;51.592;7.180;2023-03-11T14:01:58;14.00;99.90
37956;DHT22;23776;51.592;7.180;2023-03-11T14:04:26;14.00;99.90
37956;DHT22;23776;51.592;7.180;2023-03-11T14:06:52;14.00;99.90
37956;DHT22;23776;51.592;7.180;2023-03-11T14:09:19;13.80;99.90
37956;DHT22;23776;51.592;7.180;2023-03-11T14:11:46;13.90;99.90
37956;DHT22;23776;51.592;7.180;2023-03-11T14:17:17;13.80;99.90
37956;DHT22;23776;51.592;7.180;2023-03-11T14:20:20;13.40;99.90
37956;DHT22;23776;51.592;7.180;2023-03-11T14:22:55;13.10;99.90
37956;DHT22;23776;51.592;7.180;2023-03-11T14:25:27;12.70;99.90
37956;DHT22;23776;51.592;7.180;2023-03-11T14:27:58;12.10;99.90
37956;DHT22;23776;51.592;7.180;2023-03-11T14:30:27;11.50;99.90
37956;DHT22;23776;51.592;7.180;2023-03-11T14:33:03;11.00;99.90
37956;DHT22;23776;51.592;7.180;2023-03-11T14:35:31;10.70;99.90
37956;DHT22;23776;51.592;7.180;2023-03-11T14:37:58;10.70;99.90
37956;DHT22;23776;51.592;7.180;2023-03-11T14:40:30;10.60;99.90
37956;DHT22;23776;51.592;7.180;2023-03-11T14:43:00;12.30;99.90
37956;DHT22;23776;51.592;7.180;2023-03-11T14:45:32;10.90;99.90
37956;DHT22;23776;51.592;7.180;2023-03-11T14:50:45;11.40;99.90
37956;DHT22;23776;51.592;7.180;2023-03-11T14:55:50;10.90;99.90
37956;DHT22;23776;51.592;7.180;2023-03-11T14:58:43;11.40;99.90
37956;DHT22;23776;51.592;7.180;2023-03-11T15:01:29;11.70;99.90
37956;DHT22;23776;51.592;7.180;2023-03-11T15:04:13;11.90;99.90
37956;DHT22;23776;51.592;7.180;2023-03-11T15:06:42;11.90;99.90
37956;DHT22;23776;51.592;7.180;2023-03-11T15:11:57;11.50;99.90
37956;DHT22;23776;51.592;7.180;2023-03-11T15:14:34;11.50;99.90
37956;DHT22;23776;51.592;7.180;2023-03-11T15:17:26;11.50;99.90
37956;DHT22;23776;51.592;7.180;2023-03-11T15:19:56;11.80;99.90
37956;DHT22;23776;51.592;7.180;2023-03-11T15:22:23;11.80;99.90
37956;DHT22;23776;51.592;7.180;2023-03-11T15:24:56;11.40;99.90
37956;DHT22;23776;51.592;7.180;2023-03-11T15:27:34;11.00;99.90
37956;DHT22;23776;51.592;7.180;2023-03-11T15:30:01;11.20;99.90
37956;DHT22;23776;51.592;7.180;2023-03-11T15:37:32;10.90;99.90
37956;DHT22;23776;51.592;7.180;2023-03-11T15:40:11;10.60;99.90
37956;DHT22;23776;51.592;7.180;2023-03-11T15:42:37;10.40;99.90
37956;DHT22;23776;51.592;7.180;2023-03-11T15:45:23;10.10;99.90
37956;DHT22;23776;51.592;7.180;2023-03-11T15:47:48;9.90;99.90
37956;DHT22;23776;51.592;7.180;2023-03-11T15:50:25;9.70;99.90
37956;DHT22;23776;51.592;7.180;2023-03-11T15:52:57;9.60;99.90
37956;DHT22;23776;51.592;7.180;2023-03-11T15:55:24;9.40;99.90
37956;DHT22;23776;51.592;7.180;2023-03-11T15:58:01;9.30;99.90
37956;DHT22;23776;51.592;7.180;2023-03-11T16:00:27;9.20;99.90
37956;DHT22;23776;51.592;7.180;2023-03-11T16:02:53;9.10;99.90
37956;DHT22;23776;51.592;7.180;2023-03-11T16:05:22;9.00;99.90
37956;DHT22;23776;51.592;7.180;2023-03-11T16:07:48;8.90;99.90
37956;DHT22;23776;51.592;7.180;2023-03-11T16:10:16;8.90;99.90
37956;DHT22;23776;51.592;7.180;2023-03-11T16:12:42;8.90;99.90
37956;DHT22;23776;51.592;7.180;2023-03-11T16:15:30;8.80;99.90
37956;DHT22;23776;51.592;7.180;2023-03-11T16:17:58;8.80;99.90
37956;DHT22;23776;51.592;7.180;2023-03-11T16:20:26;8.80;99.90
37956;DHT22;23776;51.592;7.180;2023-03-11T16:22:54;8.80;99.90
37956;DHT22;23776;51.592;7.180;2023-03-11T16:25:27;8.80;99.90
37956;DHT22;23776;51.592;7.180;2023-03-11T16:27:55;8.70;99.90
37956;DHT22;23776;51.592;7.180;2023-03-11T16:30:25;8.60;99.90
37956;DHT22;23776;51.592;7.180;2023-03-11T16:32:52;8.70;99.90
37956;DHT22;23776;51.592;7.180;2023-03-11T16:35:17;8.50;99.90
37956;DHT22;23776;51.592;7.180;2023-03-11T16:37:43;8.40;99.90
37956;DHT22;23776;51.592;7.180;2023-03-11T16:40:15;8.30;99.90
37956;DHT22;23776;51.592;7.180;2023-03-11T16:42:41;8.20;99.90
37956;DHT22;23776;51.592;7.180;2023-03-11T16:45:09;8.10;99.90
37956;DHT22;23776;51.592;7.180;2023-03-11T16:47:35;8.00;99.90
37956;DHT22;23776;51.592;7.180;2023-03-11T16:50:01;7.90;99.90
37956;DHT22;23776;51.592;7.180;2023-03-11T16:52:26;7.80;99.90
37956;DHT22;23776;51.592;7.180;2023-03-11T16:54:52;7.80;99.90
37956;DHT22;23776;51.592;7.180;2023-03-11T16:57:17;7.70;99.90
37956;DHT22;23776;51.592;7.180;2023-03-11T16:59:43;7.60;99.90
37956;DHT22;23776;51.592;7.180;2023-03-11T17:02:10;7.50;99.90
37956;DHT22;23776;51.592;7.180;2023-03-11T17:04:36;7.50;99.90
37956;DHT22;23776;51.592;7.180;2023-03-11T17:07:06;7.50;99.90
37956;DHT22;23776;51.592;7.180;2023-03-11T17:09:33;7.40;99.90
37956;DHT22;23776;51.592;7.180;2023-03-11T17:11:59;7.40;99.90
37956;DHT22;23776;51.592;7.180;2023-03-11T17:14:24;7.30;99.90
37956;DHT22;23776;51.592;7.180;2023-03-11T17:16:50;7.30;99.90
37956;DHT22;23776;51.592;7.180;2023-03-11T17:19:16;7.10;99.90
37956;DHT22;23776;51.592;7.180;2023-03-11T17:21:41;7.00;1.00
37956;DHT22;23776;51.592;7.180;2023-03-11T17:24:08;7.00;6.60
37956;DHT22;23776;51.592;7.180;2023-03-11T17:26:34;6.80;1.00
37956;DHT22;23776;51.592;7.180;2023-03-11T17:28:59;6.70;1.00
37956;DHT22;23776;51.592;7.180;2023-03-11T17:31:25;6.60;1.00
37956;DHT22;23776;51.592;7.180;2023-03-11T17:33:51;6.50;99.90
37956;DHT22;23776;51.592;7.180;2023-03-11T17:36:17;6.50;1.00
37956;DHT22;23776;51.592;7.180;2023-03-11T17:38:43;6.50;99.90
37956;DHT22;23776;51.592;7.180;2023-03-11T17:41:12;6.50;6.90
37956;DHT22;23776;51.592;7.180;2023-03-11T17:43:38;6.30;1.00
37956;DHT22;23776;51.592;7.180;2023-03-11T17:46:08;6.20;99.90
37956;DHT22;23776;51.592;7.180;2023-03-11T17:48:36;6.10;1.00
37956;DHT22;23776;51.592;7.180;2023-03-11T17:51:09;6.00;1.00
37956;DHT22;23776;51.592;7.180;2023-03-11T17:53:39;5.80;99.90
37956;DHT22;23776;51.592;7.180;2023-03-11T17:56:06;7.40;99.90
37956;DHT22;23776;51.592;7.180;2023-03-11T17:58:33;5.60;1.00